createdAt,value
2017-10-15T00:02:19.537Z,67.33
2017-10-15T00:05:25.452Z,67.50
2017-10-15T00:08:31.341Z,66.74
2017-10-15T00:11:37.434Z,67.28
2017-10-15T00:14:43.226Z,66.74
2017-10-15T00:17:49.022Z,65.41
2017-10-15T00:20:58.004Z,64.93
2017-10-15T00:24:04.100Z,64.73
2017-10-15T00:27:19.985Z,65.06
2017-10-15T00:30:26.901Z,64.48
2017-10-15T00:33:34.092Z,63.42
2017-10-15T00:36:39.561Z,63.21
2017-10-15T00:39:45.700Z,62.35
2017-10-15T00:42:51.409Z,62.44
2017-10-15T00:45:57.020Z,62.88
2017-10-15T00:49:04.850Z,62.73
2017-10-15T00:52:11.857Z,61.74
2017-10-15T00:55:18.049Z,61.45
2017-10-15T00:58:24.052Z,61.49
2017-10-15T01:01:30.049Z,62.43
2017-10-15T01:04:36.192Z,63.27
2017-10-15T01:07:41.585Z,63.57
2017-10-15T01:10:47.633Z,63.49
2017-10-15T01:13:53.665Z,62.84
2017-10-15T01:16:59.749Z,62.59
2017-10-15T01:20:07.941Z,62.81
2017-10-15T01:23:13.907Z,63.04
2017-10-15T01:26:24.079Z,62.95
2017-10-15T01:29:29.765Z,63.33
2017-10-15T01:32:36.622Z,63.01
2017-10-15T01:35:43.510Z,63.03
2017-10-15T01:38:49.626Z,63.37
2017-10-15T01:41:55.511Z,63.62
2017-10-15T01:45:01.423Z,63.50
2017-10-15T01:48:07.510Z,63.38
2017-10-15T01:51:13.443Z,63.34
2017-10-15T01:54:18.741Z,63.23
2017-10-15T01:57:24.682Z,63.49
2017-10-15T02:00:30.747Z,62.67
2017-10-15T02:03:36.779Z,62.31
2017-10-15T02:06:42.682Z,63.24
2017-10-15T02:09:49.520Z,63.48
2017-10-15T02:12:55.393Z,63.59
2017-10-15T02:16:02.244Z,63.62
2017-10-15T02:19:08.157Z,64.04
2017-10-15T02:22:13.930Z,64.22
2017-10-15T02:25:19.849Z,63.79
2017-10-15T02:28:26.042Z,63.25
2017-10-15T02:31:31.839Z,62.77
2017-10-15T02:34:37.740Z,62.87
2017-10-15T02:37:43.846Z,63.17
2017-10-15T02:40:49.811Z,63.31
2017-10-15T02:43:55.987Z,63.17
2017-10-15T02:47:02.118Z,62.74
2017-10-15T02:50:08.096Z,63.23
2017-10-15T02:53:14.083Z,63.22
2017-10-15T02:56:19.886Z,63.49
2017-10-15T02:59:25.827Z,63.34
2017-10-15T03:02:31.819Z,63.08
2017-10-15T03:05:37.651Z,62.95
2017-10-15T03:08:43.584Z,62.66
2017-10-15T03:11:49.734Z,62.40
2017-10-15T03:14:55.641Z,62.52
2017-10-15T03:18:01.559Z,62.54
2017-10-15T03:21:07.516Z,62.98
2017-10-15T03:24:13.330Z,62.94
2017-10-15T03:27:19.313Z,62.98
2017-10-15T03:30:26.181Z,62.84
2017-10-15T03:33:32.243Z,62.95
2017-10-15T03:36:38.196Z,63.10
2017-10-15T03:39:44.207Z,63.45
2017-10-15T03:42:50.147Z,63.43
2017-10-15T03:45:56.051Z,63.59
2017-10-15T03:49:01.238Z,63.54
2017-10-15T03:52:07.332Z,63.26
2017-10-15T03:55:13.292Z,63.33
2017-10-15T03:58:19.230Z,63.43
2017-10-15T04:01:25.206Z,62.95
2017-10-15T04:04:31.203Z,62.87
2017-10-15T04:07:37.139Z,63.16
2017-10-15T04:10:43.084Z,63.28
2017-10-15T04:13:48.849Z,62.97
2017-10-15T04:16:54.963Z,62.66
2017-10-15T04:20:01.691Z,62.74
2017-10-15T04:23:07.442Z,62.33
2017-10-15T04:26:13.314Z,62.23
2017-10-15T04:29:19.495Z,62.05
2017-10-15T04:32:26.219Z,62.01
2017-10-15T04:35:32.140Z,62.32
2017-10-15T04:38:38.036Z,62.54
2017-10-15T04:41:44.098Z,62.67
2017-10-15T04:44:49.956Z,62.77
2017-10-15T04:47:55.879Z,62.58
2017-10-15T04:51:02.751Z,63.01
2017-10-15T04:54:08.663Z,62.90
2017-10-15T04:57:14.593Z,62.92
2017-10-15T05:00:20.407Z,62.62
2017-10-15T05:03:25.671Z,62.53
2017-10-15T05:06:32.517Z,63.08
2017-10-15T05:09:38.695Z,63.24
2017-10-15T05:12:44.897Z,63.68
2017-10-15T05:15:50.624Z,64.25
2017-10-15T05:18:56.674Z,63.37
2017-10-15T05:22:02.489Z,63.11
2017-10-15T05:25:08.465Z,62.84
2017-10-15T05:28:14.303Z,63.67
2017-10-15T05:31:20.406Z,63.52
2017-10-15T05:34:26.251Z,64.04
2017-10-15T05:37:32.375Z,64.89
2017-10-15T05:40:38.154Z,64.08
2017-10-15T05:43:44.021Z,64.39
2017-10-15T05:46:49.772Z,64.25
2017-10-15T05:52:47.710Z,65.81
2017-10-15T05:55:53.194Z,65.50
2017-10-15T05:58:58.808Z,67.51
2017-10-15T06:02:05.303Z,67.82
2017-10-15T06:05:11.915Z,67.20
2017-10-15T06:08:18.510Z,66.18
2017-10-15T06:11:24.305Z,65.35
2017-10-15T06:14:29.851Z,64.58
2017-10-15T06:17:35.474Z,63.77
2017-10-15T06:20:41.204Z,63.46
2017-10-15T06:23:47.871Z,63.30
2017-10-15T06:26:54.571Z,63.72
2017-10-15T06:30:01.196Z,63.90
2017-10-15T06:33:07.095Z,64.33
2017-10-15T06:36:12.722Z,65.04
2017-10-15T06:39:19.522Z,65.02
2017-10-15T06:42:25.253Z,65.29
2017-10-15T06:45:33.020Z,65.62
2017-10-15T06:51:21.878Z,66.97
2017-10-15T06:54:27.561Z,67.00
2017-10-15T06:57:33.401Z,66.83
2017-10-15T07:00:41.404Z,66.40
2017-10-15T07:03:46.950Z,66.35
2017-10-15T07:06:52.900Z,66.62
2017-10-15T07:09:58.780Z,66.56
2017-10-15T07:13:04.723Z,66.64
2017-10-15T07:16:10.548Z,66.98
2017-10-15T07:19:16.227Z,68.65
2017-10-15T07:22:22.042Z,69.80
2017-10-15T07:25:27.874Z,70.99
2017-10-15T07:28:33.778Z,72.53
2017-10-15T07:31:39.439Z,72.40
2017-10-15T07:34:49.452Z,73.22
2017-10-15T07:37:57.259Z,72.59
2017-10-15T07:41:03.760Z,71.66
2017-10-15T07:44:11.920Z,70.48
2017-10-15T07:47:17.924Z,70.66
2017-10-15T07:50:29.903Z,70.29
2017-10-15T07:53:41.437Z,69.20
2017-10-15T07:56:54.208Z,68.75
2017-10-15T08:00:02.532Z,68.21
2017-10-15T08:03:09.247Z,68.23
2017-10-15T08:06:26.946Z,69.43
2017-10-15T08:09:38.663Z,68.33
2017-10-15T08:12:59.370Z,67.23
2017-10-15T08:19:23.349Z,65.51
2017-10-15T08:22:30.288Z,64.70
2017-10-15T08:25:45.131Z,65.21
2017-10-15T08:28:53.011Z,65.20
2017-10-15T08:31:59.647Z,64.93
2017-10-15T08:35:07.679Z,64.53
2017-10-15T08:38:16.462Z,65.16
2017-10-15T08:41:22.607Z,64.56
2017-10-15T08:44:28.207Z,64.04
2017-10-15T08:47:34.176Z,64.49
2017-10-15T08:50:39.842Z,63.97
2017-10-15T08:53:45.431Z,62.78
2017-10-15T08:56:52.317Z,64.07
2017-10-15T08:59:57.852Z,63.71
2017-10-15T09:03:03.627Z,62.87
2017-10-15T09:06:10.367Z,63.29
2017-10-15T09:09:16.051Z,62.25
2017-10-15T09:12:22.728Z,61.24
2017-10-15T09:15:32.531Z,62.45
2017-10-15T09:18:38.153Z,62.11
2017-10-15T09:21:43.983Z,61.92
2017-10-15T09:24:50.981Z,60.48
2017-10-15T09:28:02.807Z,60.23
2017-10-15T09:31:09.525Z,60.86
2017-10-15T09:34:16.032Z,61.24
2017-10-15T09:37:22.739Z,60.72
2017-10-15T09:40:28.540Z,59.95
2017-10-15T09:43:35.250Z,59.94
2017-10-15T09:46:41.234Z,57.71
2017-10-15T09:49:47.062Z,58.52
2017-10-15T09:52:52.628Z,57.59
2017-10-15T09:55:58.473Z,57.42
2017-10-15T09:59:05.059Z,57.59
2017-10-15T10:02:10.748Z,58.48
2017-10-15T10:05:19.323Z,56.95
2017-10-15T10:08:26.102Z,59.06
2017-10-15T10:11:32.832Z,58.56
2017-10-15T10:14:39.367Z,58.86
2017-10-15T10:21:04.768Z,60.02
2017-10-15T10:24:11.360Z,56.41
2017-10-15T10:27:20.023Z,57.20
2017-10-15T10:30:30.667Z,57.71
2017-10-15T10:33:37.541Z,55.37
2017-10-15T10:36:43.256Z,56.20
2017-10-15T10:39:48.970Z,55.87
2017-10-15T10:42:56.765Z,57.02
2017-10-15T10:46:02.455Z,57.01
2017-10-15T10:49:08.991Z,55.85
2017-10-15T10:52:14.891Z,56.09
2017-10-15T10:55:22.705Z,55.90
2017-10-15T10:58:29.404Z,56.13
2017-10-15T11:01:35.129Z,56.55
2017-10-15T11:04:41.694Z,57.23
2017-10-15T11:07:47.460Z,55.22
2017-10-15T11:14:08.970Z,55.28
2017-10-15T11:17:15.755Z,54.56
2017-10-15T11:20:21.469Z,55.13
2017-10-15T11:23:28.628Z,54.25
2017-10-15T11:26:34.933Z,53.67
2017-10-15T11:29:42.143Z,54.53
2017-10-15T11:32:48.947Z,55.83
2017-10-15T11:35:56.800Z,54.54
2017-10-15T11:39:07.600Z,53.85
2017-10-15T11:42:14.355Z,54.86
2017-10-15T11:45:21.860Z,53.25
2017-10-15T11:48:27.852Z,54.14
2017-10-15T11:51:34.659Z,53.71
2017-10-15T11:54:41.359Z,53.26
2017-10-15T11:57:47.606Z,53.73
2017-10-15T12:00:53.896Z,53.59
2017-10-15T12:04:00.494Z,53.50
2017-10-15T12:07:09.014Z,54.26
2017-10-15T12:10:15.750Z,53.72
2017-10-15T12:13:24.540Z,54.09
2017-10-15T12:16:30.886Z,54.75
2017-10-15T12:19:37.602Z,55.27
2017-10-15T12:22:46.915Z,55.53
2017-10-15T12:25:54.515Z,55.59
2017-10-15T12:29:00.830Z,53.10
2017-10-15T12:32:07.532Z,55.26
2017-10-15T12:35:13.246Z,54.73
2017-10-15T12:38:18.809Z,53.53
2017-10-15T12:41:24.622Z,54.59
2017-10-15T12:44:36.318Z,54.82
2017-10-15T12:47:46.007Z,53.94
2017-10-15T12:54:08.269Z,54.67
2017-10-15T12:57:15.723Z,54.79
2017-10-15T13:00:22.287Z,54.93
2017-10-15T13:03:29.220Z,54.95
2017-10-15T13:06:35.983Z,55.26
2017-10-15T13:09:43.760Z,55.36
2017-10-15T13:12:49.544Z,55.64
2017-10-15T13:15:57.189Z,55.08
2017-10-15T13:19:05.862Z,54.41
2017-10-15T13:24:59.931Z,55.53
2017-10-15T13:28:11.195Z,56.77
2017-10-15T13:31:19.923Z,54.26
2017-10-15T13:34:28.576Z,53.65
2017-10-15T13:37:36.440Z,55.31
2017-10-15T13:40:43.765Z,55.53
2017-10-15T13:43:51.811Z,55.06
2017-10-15T13:47:03.509Z,54.72
2017-10-15T13:50:11.218Z,55.59
2017-10-15T13:53:17.853Z,55.42
2017-10-15T13:56:29.652Z,55.34
2017-10-15T13:59:39.940Z,55.28
2017-10-15T14:02:45.992Z,55.44
2017-10-15T14:05:52.646Z,54.45
2017-10-15T14:11:52.987Z,55.58
2017-10-15T14:14:58.623Z,55.43
2017-10-15T14:18:07.331Z,54.64
2017-10-15T14:21:13.023Z,55.05
2017-10-15T14:24:18.712Z,52.89
2017-10-15T14:27:24.511Z,53.59
2017-10-15T14:30:30.259Z,52.60
2017-10-15T14:33:37.017Z,52.75
2017-10-15T14:36:42.559Z,52.22
2017-10-15T14:39:54.371Z,51.88
2017-10-15T14:43:00.009Z,51.94
2017-10-15T14:46:05.478Z,53.00
2017-10-15T14:49:11.101Z,53.02
2017-10-15T14:52:16.776Z,52.83
2017-10-15T14:55:22.756Z,52.76
2017-10-15T14:58:30.514Z,52.10
2017-10-15T15:01:36.351Z,53.10
2017-10-15T15:04:42.241Z,52.98
2017-10-15T15:07:49.867Z,53.30
2017-10-15T15:10:55.605Z,54.47
2017-10-15T15:14:03.384Z,54.62
2017-10-15T15:17:13.186Z,54.18
2017-10-15T15:20:23.119Z,54.97
2017-10-15T15:23:30.021Z,55.71
2017-10-15T15:26:39.272Z,55.20
2017-10-15T15:29:44.966Z,55.24
2017-10-15T15:33:02.809Z,55.88
2017-10-15T15:36:12.605Z,56.60
2017-10-15T15:39:19.314Z,56.53
2017-10-15T15:42:26.827Z,56.72
2017-10-15T15:45:35.648Z,56.89
2017-10-15T15:48:42.395Z,56.70
2017-10-15T15:51:51.031Z,56.49
2017-10-15T15:54:57.118Z,56.77
2017-10-15T15:58:02.699Z,57.04
2017-10-15T16:01:08.288Z,56.19
2017-10-15T16:04:14.872Z,57.00
2017-10-15T16:07:22.502Z,56.64
2017-10-15T16:10:28.122Z,55.78
2017-10-15T16:13:33.810Z,56.32
2017-10-15T16:16:41.803Z,56.34
2017-10-15T16:19:50.228Z,55.91
2017-10-15T16:22:56.115Z,55.11
2017-10-15T16:26:02.783Z,55.52
2017-10-15T16:29:09.269Z,55.57
2017-10-15T16:32:14.995Z,56.52
2017-10-15T16:35:20.888Z,57.61
2017-10-15T16:38:26.470Z,58.22
2017-10-15T16:41:33.166Z,56.98
2017-10-15T16:44:39.777Z,58.08
2017-10-15T16:47:45.647Z,58.73
2017-10-15T16:50:51.371Z,58.28
2017-10-15T16:53:59.089Z,58.85
2017-10-15T16:57:04.865Z,60.67
2017-10-15T17:00:10.813Z,63.93
2017-10-15T17:06:55.249Z,62.44
2017-10-15T17:10:01.594Z,63.04
2017-10-15T17:13:07.631Z,64.03
2017-10-15T17:16:13.232Z,63.07
2017-10-15T17:19:20.073Z,63.70
2017-10-15T17:22:25.734Z,63.64
2017-10-15T17:32:54.057Z,64.54
2017-10-15T17:35:31.730Z,64.48
2017-10-15T17:38:04.691Z,63.11
2017-10-15T17:40:35.791Z,63.09
2017-10-15T17:43:06.459Z,62.96
2017-10-15T17:50:52.634Z,62.00
2017-10-15T17:53:25.591Z,60.50
2017-10-15T17:55:56.762Z,59.80
2017-10-15T17:58:27.532Z,59.30
2017-10-15T18:00:59.517Z,61.09
2017-10-15T18:03:30.974Z,60.93
2017-10-15T18:06:06.046Z,60.21
2017-10-15T18:08:38.154Z,60.21
2017-10-15T18:11:10.032Z,60.93
2017-10-15T18:13:53.247Z,60.53
2017-10-15T18:16:26.995Z,60.39
2017-10-15T18:19:04.652Z,62.17
2017-10-15T18:21:38.649Z,62.86
2017-10-15T18:24:13.940Z,62.26
2017-10-15T18:26:49.060Z,61.79
2017-10-15T18:29:22.978Z,62.22
2017-10-15T18:34:40.831Z,63.31
2017-10-15T18:37:15.606Z,63.46
2017-10-15T18:39:46.298Z,64.05
2017-10-15T18:42:23.270Z,62.58
2017-10-15T18:45:04.762Z,63.08
2017-10-15T18:47:39.326Z,65.35
2017-10-15T18:52:46.072Z,67.78
2017-10-15T18:55:17.134Z,69.84
2017-10-15T18:57:52.032Z,70.76
2017-10-15T19:00:25.184Z,70.99
2017-10-15T19:02:56.262Z,70.37
2017-10-15T19:05:30.366Z,70.21
2017-10-15T19:08:04.525Z,70.15
2017-10-15T19:10:42.238Z,70.03
2017-10-15T19:13:17.703Z,69.01
2017-10-15T19:15:48.929Z,68.90
2017-10-15T19:18:19.837Z,70.49
2017-10-15T19:21:00.985Z,70.46
2017-10-15T19:23:36.146Z,68.57
2017-10-15T19:26:08.329Z,67.11
2017-10-15T19:28:40.022Z,67.15
2017-10-15T19:31:11.536Z,68.35
2017-10-15T19:33:43.963Z,67.68
2017-10-15T19:36:15.695Z,69.49
2017-10-15T19:38:49.022Z,68.84
2017-10-15T19:41:21.038Z,67.74
2017-10-15T19:43:52.042Z,67.22
2017-10-15T19:46:25.475Z,66.40
2017-10-15T19:48:56.998Z,64.98
2017-10-15T19:51:29.251Z,65.03
2017-10-15T19:54:04.286Z,65.89
2017-10-15T19:56:38.383Z,66.27
2017-10-15T19:59:11.059Z,65.45
2017-10-15T20:01:42.823Z,65.28
2017-10-15T20:04:21.478Z,66.35
2017-10-15T20:06:59.561Z,66.27
2017-10-15T20:09:35.420Z,66.60
2017-10-15T20:12:11.620Z,67.27
2017-10-15T20:14:50.911Z,67.89
2017-10-15T20:17:25.600Z,68.79
2017-10-15T20:19:57.835Z,67.24
2017-10-15T20:22:35.010Z,68.03
2017-10-15T20:25:07.809Z,68.13
2017-10-15T20:27:39.639Z,68.51
2017-10-15T20:30:11.193Z,68.87
2017-10-15T20:32:48.675Z,68.62
2017-10-15T20:35:22.190Z,69.05
2017-10-15T20:37:58.507Z,69.50
2017-10-15T20:43:14.739Z,69.57
2017-10-15T20:45:58.437Z,69.17
2017-10-15T20:48:31.939Z,69.61
2017-10-15T20:53:45.631Z,69.57
2017-10-15T20:56:20.267Z,68.91
2017-10-15T20:58:53.524Z,69.15
2017-10-15T21:01:25.776Z,69.12
2017-10-15T21:04:00.006Z,69.68
2017-10-15T21:06:45.298Z,68.34
2017-10-15T21:09:23.417Z,68.58
2017-10-15T21:12:00.051Z,68.83
2017-10-15T21:14:34.619Z,68.12
2017-10-15T21:17:09.008Z,69.41
2017-10-15T21:19:44.451Z,68.72
2017-10-15T21:22:16.337Z,68.25
2017-10-15T21:24:50.342Z,67.55
2017-10-15T21:27:22.732Z,67.51
2017-10-15T21:29:54.205Z,65.93
2017-10-15T21:32:32.199Z,66.05
2017-10-15T21:35:08.240Z,65.27
2017-10-15T21:37:48.959Z,63.55
2017-10-15T21:40:22.215Z,63.98
2017-10-15T21:45:33.351Z,65.71
2017-10-15T21:48:09.919Z,65.05
2017-10-15T21:50:41.360Z,65.54
2017-10-15T21:53:21.057Z,66.59
2017-10-15T21:55:56.225Z,65.99
2017-10-15T21:58:28.587Z,66.47
2017-10-15T22:01:02.845Z,66.24
2017-10-15T22:03:34.498Z,65.56
2017-10-15T22:06:08.921Z,64.33
2017-10-15T22:08:40.217Z,63.56
2017-10-15T22:11:12.436Z,63.62
2017-10-15T22:13:43.794Z,63.37
2017-10-15T22:16:14.822Z,63.51
2017-10-15T22:18:51.069Z,62.69
2017-10-15T22:21:29.430Z,62.01
2017-10-15T22:24:00.475Z,61.46
2017-10-15T22:26:34.450Z,61.75
2017-10-15T22:29:04.973Z,61.79
2017-10-15T22:31:36.443Z,61.74
2017-10-15T22:34:09.809Z,61.35
2017-10-15T22:39:25.418Z,62.39
2017-10-15T22:42:04.576Z,63.27
2017-10-15T22:44:44.742Z,63.05
2017-10-15T22:47:16.964Z,65.04
2017-10-15T22:49:58.101Z,64.51
2017-10-15T22:52:31.354Z,63.86
2017-10-15T22:55:07.905Z,64.55
2017-10-15T22:57:46.314Z,63.93
2017-10-15T23:00:23.074Z,63.44
2017-10-15T23:03:05.661Z,64.48
2017-10-15T23:05:47.283Z,63.51
2017-10-15T23:08:32.359Z,63.34
2017-10-15T23:11:26.126Z,67.14
2017-10-15T23:13:57.493Z,66.66
2017-10-15T23:16:32.070Z,66.74
2017-10-15T23:19:06.522Z,65.78
2017-10-15T23:21:37.889Z,65.82
2017-10-15T23:24:14.412Z,65.65
2017-10-15T23:26:47.383Z,64.88
2017-10-15T23:29:19.203Z,65.60
2017-10-15T23:31:57.305Z,65.56
2017-10-15T23:34:39.363Z,65.25
2017-10-15T23:37:14.813Z,65.58
2017-10-15T23:39:47.188Z,65.95
2017-10-15T23:42:21.572Z,65.87
2017-10-15T23:44:55.353Z,66.36
2017-10-15T23:47:28.696Z,66.52
2017-10-15T23:50:09.227Z,65.96
2017-10-15T23:52:45.808Z,66.02
2017-10-15T23:55:18.724Z,65.99
2017-10-15T23:57:51.656Z,68.56
